Portada
METAR-TAF:

METAR-TAF

Aeroports :

Txità, Rússia

latitud: 52-05N, longitud: 113-29E, altitud: 685 m

Observació

L'informe es va fer fa 43 minuts, a les 02:30 UTC
Vent 4 kt del Est
Temperatura 21°C
Humitat 43%
Pressió 1010 hPa
Visibilitat 10 km o més
Núvols disperses a una alçada de 5000 ft, Cumulonimbus.

METAR: UIAA 160230Z 09002MPS 9999 SCT050CB 21/08 Q1010 R29/70D NOSIG RMK QFE699/0932

Hora: 12:13 (03:13 UTC)

Pronòstic

L'informe es va fer fa 1 hora i 13 minuts, a les 02:00 UTC
Pronòstic vàlid del 16 a les 03 UTC al 17 a les 03 UTC
Vent 6 kt del Est/Nord-Est
Visibilitat 10 km o més
Núvols disperses a una alçada de 4000 ft, Cumulonimbus.

TAF: UIAA 160200Z 1603/1703 06003MPS 9999 SCT040CB

Observacions i pronòstics meteorològics de més de 4000 aeroports (METAR i TAF).

Les estacions disponibles són els punts grocs i vermells al mapa.

Posi el ratolí al punt desitjat per veure el nom de l'estació.

Feu clic per veure les observacions i els pronòstics meteorològics.

Per canviar el mapa: feu clic els botons verds amb una creu de color negre per apropar; al botó verd amb un guió per allunyar la imatge; o en les fletxes verdes per a mapes adjacents.


METAR-TAF: